Time;durP1;ratioP1;P1;durP2;ratioP2;P2;SDS_P1;SDS_P2;PMS_P1;PMS_P2;Temp;Humidity;BMP_temperature;BMP_pressure;BME280_temperature;BME280_humidity;BME280_pressure;Samples;Min_cycle;Max_cycle;Signal;HPM_P1;HPM_P2
2022/09/24 00:01:11;;;;;;;102.30;42.85;;;;;;;13.22;100.00;101164.88;4998635;28;20080;-38
2022/09/24 00:03:37;;;;;;;101.07;40.50;;;;;;;13.16;100.00;101156.53;4999633;28;20022;-39
2022/09/24 00:06:03;;;;;;;97.80;37.83;;;;;;;13.14;100.00;101157.75;4998886;28;20030;-38
2022/09/24 00:08:29;;;;;;;96.40;39.25;;;;;;;13.06;100.00;101157.84;4998502;28;20185;-39
2022/09/24 00:10:56;;;;;;;99.20;38.67;;;;;;;13.15;100.00;101154.00;4999785;28;20070;-39
2022/09/24 00:13:22;;;;;;;93.10;37.75;;;;;;;13.17;100.00;101157.38;5000067;28;20038;-39
2022/09/24 00:15:48;;;;;;;100.90;39.40;;;;;;;13.16;100.00;101148.44;4999660;28;20026;-39
2022/09/24 00:18:16;;;;;;;93.32;38.15;;;;;;;13.15;100.00;101148.59;4999888;28;20521;-39
2022/09/24 00:20:41;;;;;;;96.93;38.33;;;;;;;13.22;100.00;101144.13;4999693;28;20022;-39
2022/09/24 00:23:07;;;;;;;85.53;35.40;;;;;;;13.21;100.00;101139.72;4998694;28;20385;-39
2022/09/24 00:28:17;;;;;;;83.38;35.92;;;;;;;13.15;100.00;101152.13;4997475;28;20081;-38
2022/09/24 00:30:43;;;;;;;88.55;37.08;;;;;;;13.10;100.00;101140.22;4998150;28;20501;-38
2022/09/24 00:33:09;;;;;;;91.72;36.33;;;;;;;13.08;100.00;101150.38;4998635;28;20026;-39
2022/09/24 00:35:36;;;;;;;85.88;36.25;;;;;;;13.09;100.00;101150.22;4978247;28;20109;-39
2022/09/24 00:38:02;;;;;;;94.38;37.42;;;;;;;13.07;100.00;101146.03;4997901;28;20034;-38
2022/09/24 00:40:32;;;;;;;86.40;34.30;;;;;;;13.09;100.00;101147.50;4998248;28;20051;-39
2022/09/24 00:42:58;;;;;;;85.15;35.10;;;;;;;13.06;100.00;101141.63;4996860;28;20034;-39
2022/09/24 00:45:23;;;;;;;89.82;35.03;;;;;;;13.09;100.00;101141.28;4998075;28;20029;-39
2022/09/24 00:47:50;;;;;;;81.03;33.85;;;;;;;13.09;100.00;101128.59;4980487;28;20033;-39
2022/09/24 00:50:24;;;;;;;86.05;34.97;;;;;;;13.12;100.00;101132.78;4977202;28;20031;-39
2022/09/24 00:52:59;;;;;;;83.18;33.17;;;;;;;13.09;100.00;101134.00;4968796;28;20030;-37
2022/09/24 00:55:25;;;;;;;86.40;34.80;;;;;;;13.09;100.00;101131.28;4996958;28;20030;-38
2022/09/24 00:57:55;;;;;;;76.18;33.10;;;;;;;13.14;100.00;101122.63;4977980;28;20372;-38
2022/09/24 01:00:21;;;;;;;85.75;33.90;;;;;;;13.16;100.00;101128.66;4980421;28;20053;-39
2022/09/24 01:02:48;;;;;;;83.32;32.85;;;;;;;13.12;100.00;101127.38;4997437;28;20026;-39
2022/09/24 01:05:13;;;;;;;81.20;32.33;;;;;;;13.11;100.00;101125.69;4998215;28;20049;-39
2022/09/24 01:07:39;;;;;;;80.43;33.53;;;;;;;13.05;100.00;101118.34;4998042;28;20059;-40
2022/09/24 01:10:04;;;;;;;79.25;32.38;;;;;;;13.07;100.00;101119.00;4997152;28;20034;-38
2022/09/24 01:12:39;;;;;;;86.30;34.33;;;;;;;13.08;100.00;101120.66;4980505;28;20098;-39
2022/09/24 01:15:18;;;;;;;82.88;33.15;;;;;;;13.05;100.00;101118.34;4998603;28;20577;-38
2022/09/24 01:17:57;;;;;;;85.05;33.72;;;;;;;13.06;100.00;101112.78;4961637;28;20047;-38
2022/09/24 01:20:41;;;;;;;83.75;33.47;;;;;;;13.08;100.00;101113.38;4969928;28;20054;-39
2022/09/24 01:23:23;;;;;;;83.40;32.85;;;;;;;13.09;100.00;101101.56;4993834;28;20350;-40
2022/09/24 01:25:58;;;;;;;81.65;32.45;;;;;;;13.08;100.00;101101.75;4994686;28;20045;-38
2022/09/24 01:28:39;;;;;;;84.28;32.80;;;;;;;13.04;100.00;101105.88;4998632;28;20018;-39
2022/09/24 01:31:13;;;;;;;81.00;33.45;;;;;;;12.99;100.00;101098.34;4997133;28;20030;-38
2022/09/24 01:33:39;;;;;;;84.80;33.90;;;;;;;13.03;100.00;101101.47;4995323;28;20057;-40
2022/09/24 01:36:07;;;;;;;88.13;33.72;;;;;;;13.07;100.00;101097.38;4997336;28;20030;-39
2022/09/24 01:38:39;;;;;;;89.22;35.25;;;;;;;13.08;100.00;101083.66;4995723;28;20113;-38
2022/09/24 01:41:06;;;;;;;93.70;37.03;;;;;;;13.08;100.00;101082.84;4979783;28;20319;-38
2022/09/24 01:43:32;;;;;;;93.80;35.83;;;;;;;13.04;100.00;101081.56;4997475;28;20033;-38
2022/09/24 01:46:00;;;;;;;91.78;36.38;;;;;;;13.01;100.00;101080.09;4997827;28;20086;-37
2022/09/24 01:48:25;;;;;;;92.97;36.72;;;;;;;13.00;100.00;101089.19;4997248;28;20066;-38
2022/09/24 01:50:59;;;;;;;89.57;34.92;;;;;;;13.01;100.00;101084.66;4996774;28;20041;-38
2022/09/24 01:53:32;;;;;;;96.80;36.67;;;;;;;13.04;100.00;101082.41;4995396;28;20026;-40
2022/09/24 01:56:12;;;;;;;95.70;37.53;;;;;;;13.01;100.00;101080.09;4997796;28;20085;-39
2022/09/24 01:58:50;;;;;;;97.60;37.10;;;;;;;13.06;100.00;101079.47;5000211;28;20030;-39
2022/09/24 02:01:28;;;;;;;100.15;39.30;;;;;;;13.04;100.00;101079.69;4995043;28;20033;-40
2022/09/24 02:04:00;;;;;;;105.00;41.05;;;;;;;13.01;100.00;101076.53;4976199;28;20030;-41
2022/09/24 02:06:35;;;;;;;107.07;41.58;;;;;;;13.00;100.00;101074.84;4994426;28;20121;-41
2022/09/24 02:09:00;;;;;;;106.55;43.47;;;;;;;12.99;100.00;101065.09;4984389;28;20051;-38
2022/09/24 02:11:26;;;;;;;108.93;43.10;;;;;;;12.98;100.00;101056.16;4980155;28;20501;-40
2022/09/24 02:13:55;;;;;;;110.70;41.78;;;;;;;12.96;100.00;101048.22;4990617;28;20036;-40
2022/09/24 02:16:24;;;;;;;112.57;43.53;;;;;;;12.93;100.00;101042.38;4995056;28;20026;-39
2022/09/24 02:18:51;;;;;;;119.60;44.28;;;;;;;12.92;100.00;101044.22;4993860;28;20553;-39
2022/09/24 02:21:19;;;;;;;122.10;45.43;;;;;;;12.88;100.00;101042.13;4977339;28;20030;-39
2022/09/24 02:23:54;;;;;;;122.13;45.25;;;;;;;12.83;100.00;101048.09;4993026;28;20038;-37
2022/09/24 02:26:20;;;;;;;131.23;46.95;;;;;;;12.83;100.00;101048.09;4994552;28;20038;-38
2022/09/24 02:28:45;;;;;;;136.63;49.15;;;;;;;12.83;100.00;101050.78;4994629;28;20061;-36
2022/09/24 02:31:13;;;;;;;141.25;49.67;;;;;;;12.84;100.00;101049.75;4995721;28;20096;-37
2022/09/24 02:36:27;;;;;;;142.32;49.25;;;;;;;12.91;100.00;101049.84;4995235;28;20188;-38
2022/09/24 02:38:52;;;;;;;132.13;46.97;;;;;;;12.89;100.00;101050.00;4978976;28;20046;-38
2022/09/24 02:41:22;;;;;;;127.65;47.30;;;;;;;12.88;100.00;101056.47;4996812;28;20101;-38
2022/09/24 02:43:47;;;;;;;124.55;46.47;;;;;;;12.89;100.00;101052.72;4996295;28;20031;-38
2022/09/24 02:46:12;;;;;;;135.18;47.88;;;;;;;12.88;100.00;101045.66;4996915;28;20369;-38
2022/09/24 02:48:38;;;;;;;132.27;47.38;;;;;;;12.90;100.00;101057.13;4996969;28;20030;-38
2022/09/24 02:51:04;;;;;;;134.60;48.75;;;;;;;12.90;100.00;101049.00;4979480;28;20488;-38
2022/09/24 02:53:31;;;;;;;136.80;49.22;;;;;;;12.90;100.00;101049.00;4997904;28;20058;-39
2022/09/24 02:55:59;;;;;;;136.43;49.22;;;;;;;12.92;100.00;101052.34;4998283;28;20401;-37
2022/09/24 02:58:24;;;;;;;144.40;50.92;;;;;;;12.91;100.00;101052.53;4998147;28;20026;-38
2022/09/24 03:00:50;;;;;;;147.02;50.78;;;;;;;12.91;100.00;101047.97;4997759;28;20037;-38
2022/09/24 03:03:15;;;;;;;149.10;51.72;;;;;;;12.92;100.00;101046.94;4976956;28;20030;-38
2022/09/24 03:05:40;;;;;;;158.65;51.38;;;;;;;12.95;100.00;101051.97;4984397;28;20038;-38
2022/09/24 03:08:06;;;;;;;144.85;53.30;;;;;;;12.95;100.00;101051.09;4997806;28;20054;-38
2022/09/24 03:10:32;;;;;;;156.90;54.45;;;;;;;12.98;100.00;101052.59;4998762;28;20033;-39
2022/09/24 03:12:57;;;;;;;158.98;54.63;;;;;;;13.00;100.00;101047.84;4999357;28;20496;-38
2022/09/24 03:15:23;;;;;;;150.05;50.20;;;;;;;13.07;100.00;101046.03;4997258;28;20117;-38
2022/09/24 03:17:48;;;;;;;156.40;52.90;;;;;;;13.09;100.00;101041.28;4998174;28;20046;-38
2022/09/24 03:20:14;;;;;;;150.70;51.78;;;;;;;13.08;100.00;101042.31;4996800;28;20042;-39
2022/09/24 03:22:39;;;;;;;147.38;50.65;;;;;;;13.09;100.00;101052.94;4995236;28;20545;-38
2022/09/24 03:25:05;;;;;;;167.45;53.50;;;;;;;13.10;100.00;101051.88;4996577;28;20449;-39
2022/09/24 03:27:30;;;;;;;147.40;50.95;;;;;;;13.15;100.00;101051.31;4980184;28;20031;-38
2022/09/24 03:32:40;;;;;;;157.85;53.58;;;;;;;13.12;100.00;101046.31;4982272;28;20559;-38
2022/09/24 03:35:05;;;;;;;154.60;52.60;;;;;;;13.12;100.00;101046.31;4991612;28;20062;-38
2022/09/24 03:37:32;;;;;;;165.57;56.95;;;;;;;13.13;100.00;101046.09;4995793;28;20076;-38
2022/09/24 03:39:57;;;;;;;169.43;54.00;;;;;;;13.14;100.00;101046.94;4996277;28;20441;-37
2022/09/24 03:42:23;;;;;;;168.73;55.17;;;;;;;13.16;100.00;101052.97;4962742;28;20088;-40
2022/09/24 03:44:48;;;;;;;174.05;54.63;;;;;;;13.17;100.00;101050.09;4995411;28;20022;-38
2022/09/24 03:47:14;;;;;;;161.80;55.25;;;;;;;13.19;100.00;101052.59;4975277;28;20050;-40
2022/09/24 03:49:39;;;;;;;174.75;54.05;;;;;;;13.20;100.00;101051.56;4994411;28;20061;-38
2022/09/24 03:52:04;;;;;;;170.38;53.42;;;;;;;13.22;100.00;101054.06;4996509;28;20030;-39
2022/09/24 03:54:30;;;;;;;175.95;53.53;;;;;;;13.23;100.00;101058.47;4994771;28;20038;-39
2022/09/24 03:56:55;;;;;;;165.65;53.40;;;;;;;13.28;100.00;101050.63;4996237;28;20031;-39
2022/09/24 03:59:20;;;;;;;169.55;53.97;;;;;;;13.26;100.00;101047.25;4996086;28;20026;-39
2022/09/24 04:01:46;;;;;;;170.02;54.25;;;;;;;13.23;100.00;101050.34;4995667;28;20121;-39
2022/09/24 04:04:14;;;;;;;173.40;54.88;;;;;;;13.23;100.00;101053.06;4984826;28;20042;-38
2022/09/24 04:06:39;;;;;;;;;;;;;;;13.22;100.00;101054.91;4967162;28;20050;-40
2022/09/24 04:09:04;;;;;;;161.10;50.88;;;;;;;13.23;100.00;101051.19;4987617;28;19917;-40
2022/09/24 04:11:30;;;;;;;178.73;53.63;;;;;;;13.24;100.00;101052.00;4993633;28;20117;-40
2022/09/24 04:13:55;;;;;;;182.65;52.08;;;;;;;13.24;100.00;101050.13;4992182;28;20030;-39
2022/09/24 04:16:21;;;;;;;165.32;50.90;;;;;;;13.27;100.00;101066.03;4991131;28;20034;-38
2022/09/24 04:18:47;;;;;;;171.60;51.35;;;;;;;13.29;100.00;101061.22;4992474;28;20100;-41
2022/09/24 04:21:12;;;;;;;189.82;56.50;;;;;;;13.28;100.00;101059.56;4989999;28;20026;-39
2022/09/24 04:23:38;;;;;;;181.88;54.58;;;;;;;13.35;100.00;101071.28;4992263;28;20081;-37
2022/09/24 04:26:03;;;;;;;191.70;57.90;;;;;;;13.34;100.00;101066.06;4993513;28;20050;-40
2022/09/24 04:28:29;;;;;;;196.95;57.80;;;;;;;13.31;100.00;101072.69;4989375;28;20505;-41
2022/09/24 04:30:55;;;;;;;185.60;55.08;;;;;;;13.28;100.00;101061.44;4985433;28;20536;-39
2022/09/24 04:33:21;;;;;;;159.93;48.95;;;;;;;13.28;100.00;101061.44;4970673;28;20031;-41
2022/09/24 04:35:46;;;;;;;162.13;48.58;;;;;;;13.27;100.00;101062.47;4988158;28;20034;-42
2022/09/24 04:38:12;;;;;;;137.43;44.17;;;;;;;13.24;100.00;101066.34;4972460;28;20049;-43
2022/09/24 04:40:38;;;;;;;124.25;39.28;;;;;;;13.21;100.00;101057.81;4990889;28;20046;-38
2022/09/24 04:43:05;;;;;;;115.72;38.38;;;;;;;13.20;100.00;101056.97;4992657;28;20500;-39
2022/09/24 04:45:31;;;;;;;111.93;36.50;;;;;;;13.21;100.00;101061.34;4972078;28;20033;-39
2022/09/24 04:47:56;;;;;;;112.82;36.80;;;;;;;13.21;100.00;101064.03;4986635;28;20049;-40
2022/09/24 04:50:26;;;;;;;116.30;37.00;;;;;;;13.22;100.00;101057.63;4984984;28;20034;-39
2022/09/24 04:52:52;;;;;;;102.47;34.88;;;;;;;13.21;100.00;101060.50;4967216;28;20034;-39
2022/09/24 04:55:19;;;;;;;107.28;34.47;;;;;;;13.24;100.00;101066.34;4986839;28;20038;-37
2022/09/24 04:57:45;;;;;;;93.97;31.90;;;;;;;13.28;100.00;101062.28;4984929;28;20041;-38
2022/09/24 05:00:14;;;;;;;84.78;29.83;;;;;;;13.25;100.00;101056.41;4983257;28;20951;-38
2022/09/24 05:02:40;;;;;;;75.80;25.83;;;;;;;13.24;100.00;101060.94;4984031;28;20457;-40
2022/09/24 05:05:05;;;;;;;63.90;21.63;;;;;;;13.23;100.00;101062.00;4967784;28;20069;-39
2022/09/24 05:07:31;;;;;;;62.90;22.30;;;;;;;13.25;100.00;101061.81;4976782;28;20191;-39
2022/09/24 05:09:56;;;;;;;47.03;17.80;;;;;;;13.24;100.00;101063.66;4985539;28;20036;-39
2022/09/24 05:12:21;;;;;;;46.67;15.85;;;;;;;13.28;100.00;101056.88;4985987;28;20069;-38
2022/09/24 05:14:47;;;;;;;41.65;13.95;;;;;;;13.31;100.00;101056.47;4987123;28;20038;-38
2022/09/24 05:17:13;;;;;;;39.80;10.90;;;;;;;13.39;100.00;101064.44;4987714;28;20125;-37
2022/09/24 05:19:38;;;;;;;24.42;9.27;;;;;;;13.39;100.00;101064.44;4972644;28;20034;-37
2022/09/24 05:22:03;;;;;;;31.58;10.15;;;;;;;13.42;100.00;101063.22;4990560;28;20038;-37
2022/09/24 05:24:29;;;;;;;29.65;9.15;;;;;;;13.41;100.00;101064.25;4990928;28;20034;-37
2022/09/24 05:27:09;;;;;;;29.55;7.30;;;;;;;13.43;100.00;101058.63;4989719;28;20034;-37
2022/09/24 05:29:39;;;;;;;20.02;6.72;;;;;;;13.41;100.00;101064.25;4990139;28;20065;-38
2022/09/24 05:32:06;;;;;;;17.60;6.88;;;;;;;13.40;100.00;101070.69;4975144;28;20030;-38
2022/09/24 05:34:32;;;;;;;24.33;6.45;;;;;;;13.38;100.00;101073.59;4996060;28;20026;-38
2022/09/24 05:36:58;;;;;;;30.50;8.10;;;;;;;13.37;100.00;101077.31;4995440;28;20026;-37
2022/09/24 05:39:24;;;;;;;24.73;6.43;;;;;;;13.41;100.00;101079.66;4995592;28;20382;-38
2022/09/24 05:41:49;;;;;;;25.77;6.40;;;;;;;13.39;100.00;101080.66;4995302;28;20058;-37
2022/09/24 05:44:18;;;;;;;20.55;7.22;;;;;;;13.38;100.00;101073.59;4999663;28;20363;-37
2022/09/24 05:46:43;;;;;;;21.70;5.65;;;;;;;13.37;100.00;101082.72;4997016;28;20061;-38
2022/09/24 05:49:08;;;;;;;27.30;6.88;;;;;;;13.38;100.00;101075.47;4997527;28;20029;-37
2022/09/24 05:51:33;;;;;;;17.52;5.65;;;;;;;13.36;100.00;101081.06;4998241;28;20038;-38
2022/09/24 05:53:59;;;;;;;20.17;5.90;;;;;;;13.36;100.00;101074.81;4997333;28;20033;-38
2022/09/24 05:56:24;;;;;;;24.45;6.00;;;;;;;13.37;100.00;101082.72;4998411;28;20041;-36
2022/09/24 05:58:50;;;;;;;23.02;5.28;;;;;;;13.38;100.00;101089.00;4997723;28;20034;-37
2022/09/24 06:01:15;;;;;;;17.50;5.18;;;;;;;13.33;100.00;101092.25;4998402;28;20089;-38
2022/09/24 06:03:41;;;;;;;24.23;6.05;;;;;;;13.36;100.00;101091.88;4997651;28;20034;-39
2022/09/24 06:06:06;;;;;;;20.23;4.22;;;;;;;13.32;100.00;101097.84;4996797;28;20495;-40
2022/09/24 06:08:32;;;;;;;12.98;4.43;;;;;;;13.28;100.00;101097.41;4995384;28;20125;-37
2022/09/24 06:11:01;;;;;;;14.10;4.28;;;;;;;13.31;100.00;101099.72;4976305;28;20118;-38
2022/09/24 06:13:27;;;;;;;29.05;4.82;;;;;;;13.30;100.00;101110.75;4979727;28;20085;-39
2022/09/24 06:15:59;;;;;;;15.63;4.03;;;;;;;13.30;100.00;101114.28;5005690;28;20541;-38
2022/09/24 06:18:25;;;;;;;19.10;4.00;;;;;;;13.31;100.00;101110.53;4997584;28;20105;-38
2022/09/24 06:20:50;;;;;;;19.20;4.45;;;;;;;13.36;100.00;101113.50;4997478;28;20035;-38
2022/09/24 06:23:15;;;;;;;18.33;4.32;;;;;;;13.39;100.00;101115.81;4996895;28;20065;-38
2022/09/24 06:25:41;;;;;;;22.83;4.40;;;;;;;13.39;100.00;101121.22;4997028;28;20053;-37
2022/09/24 06:28:06;;;;;;;19.90;4.20;;;;;;;13.46;100.00;101125.88;4997130;28;20038;-38
2022/09/24 06:30:40;;;;;;;25.17;4.20;;;;;;;13.51;100.00;101126.13;4996801;28;20113;-39
2022/09/24 06:33:08;;;;;;;11.43;3.63;;;;;;;13.56;100.00;101124.50;4997860;28;20053;-38
2022/09/24 06:35:38;;;;;;;15.25;3.90;;;;;;;13.59;100.00;101124.13;4976176;28;20041;-38
2022/09/24 06:38:04;;;;;;;21.08;3.92;;;;;;;13.59;100.00;101123.28;4976001;28;20034;-39
2022/09/24 06:40:30;;;;;;;18.90;4.70;;;;;;;13.65;100.00;101127.91;4996634;28;20041;-40
2022/09/24 06:42:56;;;;;;;27.30;4.25;;;;;;;13.67;100.00;101125.00;4996360;28;20038;-37
2022/09/24 06:45:22;;;;;;;21.98;4.05;;;;;;;13.70;100.00;101130.84;4996318;28;20031;-38
2022/09/24 06:47:54;;;;;;;24.05;5.00;;;;;;;13.74;100.00;101132.13;4996831;28;20038;-38
2022/09/24 06:50:21;;;;;;;31.52;4.82;;;;;;;13.74;100.00;101126.72;4996458;28;20034;-39
2022/09/24 06:52:46;;;;;;;30.15;4.70;;;;;;;13.75;100.00;101133.81;4996519;28;20026;-39
2022/09/24 06:55:11;;;;;;;19.23;3.63;;;;;;;13.78;100.00;101138.00;4995389;28;20512;-37
2022/09/24 06:57:37;;;;;;;22.60;3.97;;;;;;;13.76;100.00;101134.66;4996158;28;20061;-39
2022/09/24 07:00:03;;;;;;;27.95;4.05;;;;;;;13.76;100.00;101140.88;4996812;28;20157;-40
2022/09/24 07:02:30;;;;;;;30.92;4.13;;;;;;;13.78;100.00;101151.53;4995980;28;20054;-38
2022/09/24 07:04:55;;;;;;;37.78;5.32;;;;;;;13.77;100.00;101145.28;4996817;28;20030;-39
2022/09/24 07:07:33;;;;;;;22.60;4.07;;;;;;;13.81;100.00;101151.13;4995421;28;20367;-39
2022/09/24 07:10:06;;;;;;;42.83;5.45;;;;;;;13.80;100.00;101147.59;4996194;28;20030;-40
2022/09/24 07:12:33;;;;;;;30.95;4.32;;;;;;;13.79;100.00;101150.47;4996041;28;20113;-39
2022/09/24 07:15:02;;;;;;;40.08;4.15;;;;;;;13.72;100.00;101145.03;4997128;28;20396;-39
2022/09/24 07:17:28;;;;;;;28.48;4.40;;;;;;;13.75;100.00;101152.75;4996533;28;20093;-39
2022/09/24 07:19:54;;;;;;;25.70;3.92;;;;;;;13.74;100.00;101152.94;4996205;28;20039;-40
2022/09/24 07:22:20;;;;;;;27.60;3.30;;;;;;;13.70;100.00;101157.91;4995278;28;20042;-38
2022/09/24 07:24:46;;;;;;;31.08;4.40;;;;;;;13.68;100.00;101162.66;4995770;28;20540;-39
2022/09/24 07:27:12;;;;;;;37.47;4.20;;;;;;;13.70;100.00;101160.63;4977853;28;20212;-39
2022/09/24 07:29:38;;;;;;;26.63;4.32;;;;;;;13.72;100.00;101165.84;4995997;28;20117;-38
2022/09/24 07:32:03;;;;;;;20.30;3.30;;;;;;;13.71;100.00;101175.81;4996682;28;20114;-38
2022/09/24 07:34:29;;;;;;;32.38;3.90;;;;;;;13.72;100.00;101169.38;4986321;28;20053;-39
2022/09/24 07:36:55;;;;;;;27.67;3.75;;;;;;;13.72;100.00;101174.78;4976490;28;20041;-38
2022/09/24 07:39:21;;;;;;;27.25;4.32;;;;;;;13.80;100.00;101169.25;4976435;28;20023;-37
2022/09/24 07:41:47;;;;;;;24.85;4.55;;;;;;;13.92;100.00;101172.22;4975760;28;20019;-38
2022/09/24 07:44:12;;;;;;;24.52;3.28;;;;;;;14.00;100.00;101179.38;4974712;28;20494;-38
2022/09/24 07:46:38;;;;;;;30.45;3.65;;;;;;;14.03;100.00;101178.97;4984966;28;20044;-38
2022/09/24 07:49:03;;;;;;;27.60;3.33;;;;;;;14.08;100.00;101181.94;4993981;28;20026;-38
2022/09/24 07:51:29;;;;;;;31.80;3.95;;;;;;;14.16;100.00;101172.81;4995557;28;20018;-39
2022/09/24 07:53:55;;;;;;;33.22;4.13;;;;;;;14.23;100.00;101179.97;4996992;28;20089;-37
2022/09/24 07:56:22;;;;;;;31.17;3.40;;;;;;;14.25;100.00;101183.31;4978526;28;20037;-38
2022/09/24 07:58:48;;;;;;;36.50;3.92;;;;;;;14.28;100.00;101182.09;4994546;28;20041;-38
2022/09/24 08:01:15;;;;;;;30.92;4.05;;;;;;;14.34;100.00;101185.88;4994218;28;20034;-38
2022/09/24 08:03:41;;;;;;;34.13;3.92;;;;;;;14.32;100.00;101187.94;4994876;28;20050;-38
2022/09/24 08:06:06;;;;;;;29.10;3.45;;;;;;;14.31;100.00;101189.81;4994983;28;20038;-38
2022/09/24 08:08:32;;;;;;;24.48;3.38;;;;;;;14.31;100.00;101181.69;4975415;28;20046;-39
2022/09/24 08:11:02;;;;;;;27.38;4.05;;;;;;;14.28;100.00;101193.75;4991381;28;20030;-38
2022/09/24 08:13:28;;;;;;;34.38;3.70;;;;;;;14.31;100.00;101192.50;4990276;28;20088;-38
2022/09/24 08:15:59;;;;;;;32.03;4.55;;;;;;;14.24;100.00;101197.03;4988999;28;20034;-37
2022/09/24 08:18:25;;;;;;;23.80;3.03;;;;;;;14.21;100.00;101203.69;4989366;28;20241;-37
2022/09/24 08:20:50;;;;;;;35.22;4.15;;;;;;;14.11;100.00;101208.59;4989094;28;20512;-38
2022/09/24 08:23:16;;;;;;;41.33;4.32;;;;;;;14.12;100.00;101204.88;4989269;28;20340;-37
2022/09/24 08:25:41;;;;;;;26.38;3.88;;;;;;;14.12;100.00;101215.69;4989461;28;20034;-37
2022/09/24 08:28:07;;;;;;;33.70;3.42;;;;;;;14.09;100.00;101207.97;4988155;28;20088;-38
2022/09/24 08:30:34;;;;;;;39.40;3.75;;;;;;;14.06;100.00;101216.50;4991501;28;20521;-39
2022/09/24 08:32:59;;;;;;;35.20;3.88;;;;;;;14.09;100.00;101207.16;4991648;28;20053;-38
2022/09/24 08:35:25;;;;;;;18.80;3.10;;;;;;;14.10;100.00;101220.47;4993252;28;20026;-38
2022/09/24 08:37:53;;;;;;;32.30;4.05;;;;;;;14.15;100.00;101220.72;4986629;28;20094;-38
2022/09/24 08:40:21;;;;;;;30.65;3.00;;;;;;;14.16;100.00;101222.38;4985005;28;20033;-38
2022/09/24 08:42:53;;;;;;;33.22;3.15;;;;;;;14.19;100.00;101216.59;4976310;28;20022;-39
2022/09/24 08:48:14;;;;;;;33.70;3.00;;;;;;;14.27;100.00;101223.75;4979361;28;20160;-37
2022/09/24 08:50:47;;;;;;;20.83;3.53;;;;;;;14.28;100.00;101225.41;4991790;28;20038;-38
2022/09/24 08:53:25;;;;;;;30.92;2.97;;;;;;;14.36;100.00;101232.53;4993742;28;20061;-38
2022/09/24 08:55:59;;;;;;;24.67;3.30;;;;;;;14.46;100.00;101223.03;4994623;28;20019;-38
2022/09/24 08:58:30;;;;;;;35.50;3.58;;;;;;;14.53;100.00;101227.69;4995561;28;20042;-38
2022/09/24 09:01:11;;;;;;;30.77;3.00;;;;;;;14.57;100.00;101223.56;4995353;28;20466;-38
2022/09/24 09:03:55;;;;;;;24.85;3.67;;;;;;;14.64;100.00;101230.69;4995337;28;20034;-38
2022/09/24 09:06:57;;;;;;;33.08;3.53;;;;;;;14.73;100.00;101238.66;4994914;28;20023;-39
2022/09/24 09:09:26;;;;;;;24.75;3.72;;;;;;;14.82;100.00;101242.84;4995933;28;20042;-38
2022/09/24 09:12:00;;;;;;;25.67;3.53;;;;;;;14.87;100.00;101243.09;4978160;28;20054;-37
2022/09/24 09:14:41;;;;;;;29.27;4.15;;;;;;;14.95;100.00;101245.63;4995964;28;20034;-39
2022/09/24 09:17:33;;;;;;;36.55;3.95;;;;;;;14.98;100.00;101247.09;4994978;28;20026;-39
2022/09/24 09:20:03;;;;;;;30.65;3.22;;;;;;;15.00;100.00;101248.56;4995057;28;20113;-38
2022/09/24 09:22:31;;;;;;;43.30;3.60;;;;;;;14.97;99.97;101246.28;5002862;28;20105;-37
2022/09/24 09:24:58;;;;;;;;;;;;;;;15.01;99.52;101246.69;4980280;28;20307;-38
2022/09/24 09:27:25;;;;;;;15.70;2.40;;;;;;;14.92;97.54;101254.16;4976927;28;19918;-38
2022/09/24 09:29:58;;;;;;;34.80;2.80;;;;;;;14.93;97.29;101258.56;4979548;28;20090;-38
2022/09/24 09:32:56;;;;;;;32.33;3.13;;;;;;;14.96;97.97;101254.63;4989722;28;20281;-38
2022/09/24 09:35:35;;;;;;;33.33;3.42;;;;;;;14.95;98.11;101259.19;4997906;28;20026;-38
2022/09/24 09:38:06;;;;;;;26.25;2.75;;;;;;;14.93;96.93;101259.41;4981290;28;20103;-37
2022/09/24 09:40:38;;;;;;;30.20;3.67;;;;;;;14.91;97.07;101257.94;4998345;28;20054;-39
2022/09/24 09:43:08;;;;;;;26.20;2.75;;;;;;;14.83;95.82;101255.38;4998959;28;20509;-38
2022/09/24 09:45:39;;;;;;;23.48;3.75;;;;;;;14.85;96.56;101264.13;4996213;28;20045;-38
2022/09/24 09:48:04;;;;;;;29.15;3.17;;;;;;;14.81;96.92;101261.00;4997609;28;20390;-39
2022/09/24 09:50:37;;;;;;;33.05;3.28;;;;;;;14.85;96.87;101264.13;4997216;28;20034;-38
2022/09/24 09:53:04;;;;;;;28.17;3.70;;;;;;;14.83;96.33;101271.63;4981048;28;20048;-38
2022/09/24 09:55:38;;;;;;;32.72;3.50;;;;;;;14.83;96.30;101266.22;4999011;28;20054;-38
2022/09/24 09:58:14;;;;;;;22.00;2.75;;;;;;;14.87;96.30;101267.47;4997828;28;20030;-38
2022/09/24 10:00:40;;;;;;;24.52;2.90;;;;;;;14.92;96.07;101268.53;4977465;28;20061;-37
2022/09/24 10:03:18;;;;;;;22.52;3.08;;;;;;;14.97;95.29;101261.69;4991895;28;20022;-38
2022/09/24 10:05:43;;;;;;;;;;;;;;;15.08;95.75;101269.25;4982062;28;20470;-39
2022/09/24 10:08:20;;;;;;;13.25;2.70;;;;;;;15.20;95.61;101266.81;4981061;28;19928;-38
2022/09/24 10:10:54;;;;;;;22.37;2.90;;;;;;;15.31;94.77;101267.06;4998637;28;20084;-38
2022/09/24 10:13:19;;;;;;;27.30;3.08;;;;;;;15.36;94.26;101261.03;4997437;28;20297;-38
2022/09/24 10:16:02;;;;;;;22.98;2.50;;;;;;;15.35;92.22;101268.34;4998461;28;20060;-38
2022/09/24 10:18:35;;;;;;;29.10;2.67;;;;;;;15.45;92.89;101265.22;4987021;28;20038;-38
2022/09/24 10:21:03;;;;;;;19.60;2.70;;;;;;;15.49;93.36;101271.94;5001055;28;20061;-37
2022/09/24 10:23:35;;;;;;;21.88;2.40;;;;;;;15.44;91.96;101260.84;5000372;28;20066;-38
2022/09/24 10:26:02;;;;;;;26.55;2.78;;;;;;;15.52;92.15;101268.81;4980557;28;20532;-39
2022/09/24 10:31:24;;;;;;;16.92;2.15;;;;;;;15.53;92.57;101272.34;4999838;28;20046;-41
2022/09/24 10:33:53;;;;;;;23.20;3.13;;;;;;;15.52;93.09;101271.50;5000369;28;20022;-39
2022/09/24 10:36:22;;;;;;;28.98;2.70;;;;;;;15.41;92.99;101280.25;4999611;28;20034;-38
2022/09/24 10:38:48;;;;;;;20.45;2.70;;;;;;;15.42;92.75;101272.94;5000847;28;20436;-39
2022/09/24 10:41:26;;;;;;;16.17;2.38;;;;;;;15.42;92.92;101273.78;4984105;28;20054;-39
2022/09/24 10:43:53;;;;;;;21.98;3.10;;;;;;;15.28;90.50;101277.50;5002130;28;20068;-40
2022/09/24 10:46:52;;;;;;;19.58;3.30;;;;;;;15.10;92.08;101283.44;4984893;28;20050;-39
2022/09/24 10:49:20;;;;;;;21.10;2.80;;;;;;;15.05;93.36;101289.47;5002835;28;20030;-39
2022/09/24 10:51:58;;;;;;;23.40;2.55;;;;;;;14.96;94.11;101293.41;5003959;28;20026;-38
2022/09/24 10:54:48;;;;;;;22.13;3.40;;;;;;;14.88;94.25;101290.84;5001137;28;20401;-38
2022/09/24 10:57:28;;;;;;;17.98;2.97;;;;;;;14.89;95.49;101292.50;5010424;28;20026;-39
2022/09/24 10:59:58;;;;;;;20.05;3.40;;;;;;;14.84;96.75;101300.41;5000409;28;20031;-39
2022/09/24 11:02:40;;;;;;;22.05;2.90;;;;;;;14.83;98.28;101299.56;5004311;28;20030;-40
2022/09/24 11:05:12;;;;;;;16.10;2.15;;;;;;;14.74;98.13;101294.50;4973608;28;20045;-39
2022/09/24 11:07:51;;;;;;;18.10;2.38;;;;;;;14.64;98.16;101292.13;4980097;28;20054;-39
2022/09/24 11:10:19;;;;;;;20.73;2.65;;;;;;;14.57;99.33;101302.94;4978796;28;20030;-38
2022/09/24 11:13:12;;;;;;;21.33;3.03;;;;;;;14.56;100.00;101305.81;4994633;28;20045;-37
2022/09/24 11:15:59;;;;;;;16.95;3.60;;;;;;;14.55;100.00;101307.69;4974072;28;20038;-38
2022/09/24 11:18:40;;;;;;;20.95;3.13;;;;;;;14.56;100.00;101305.81;4993179;28;20034;-39
2022/09/24 11:21:39;;;;;;;26.00;3.33;;;;;;;14.53;99.39;101301.63;4994301;28;20538;-38
2022/09/24 11:24:19;;;;;;;18.70;2.78;;;;;;;14.51;99.76;101301.00;4994252;28;20090;-39
2022/09/24 11:26:57;;;;;;;34.45;3.92;;;;;;;14.46;99.29;101306.97;4994208;28;20027;-38
2022/09/24 11:29:22;;;;;;;27.25;2.90;;;;;;;14.49;99.51;101309.28;4992302;28;20030;-39